Tuesday, August 29, 2017

NNNN.ca Rule in August 16 .ca TBR Drop Results

DomainReport.ca

The August 16 .ca TBR drop returned a larger than usual number of domains.  A total of 144 .ca domains were grabbed in this drop.

What was notable about this drop was that there were many NNNN.ca from the 1900's that could be the birth year of people who are still alive.  They seemed to be a popular grab this week as many were taken early in the drop.  A domain such as 1986.ca could make a good vanity url or email for someone born in that year.

Other than the NNNN, the rest of the domains were a mixed bag of single word, two word and brandable type domains.

Some of the better names included:

1975.ca

969.ca

1987.ca

1984.ca

1998.ca    ... you get the idea, see below for more NNNN


Facelift.ca

MyDeals.ca

Drywaller.ca

Teenclub.ca

Rattlesnake.ca

Violets.ca

Bitwallet.ca

The full list of domains that were grabbed is below.  I've bolded some of the more interesting names on the list.  Thanks to Sibername for providing the data.




Domain Name Registrar
1 2017/08/16 14:00:00.002007 1975.ca DomainCentral.ca Inc
2 2017/08/16 14:00:00.002326 servpro.ca TheDomainNameStore.ca Inc.
3 2017/08/16 14:00:00.002402 969.ca 7809646 Canada Inc.
4 2017/08/16 14:00:00.003426 orpp.ca Sibername.com (1686780 Ontario Ltd.)
5 2017/08/16 14:00:00.003922 1987.ca Regnow.ca Inc.
6 2017/08/16 14:00:00.005706 1986.ca TARTON DOMAIN NAMES LTD
7 2017/08/16 14:00:00.007150 cnmag.ca SIBERNAME INTERNET AND SOFTWARE TECHNOLOGIES INC.
8 2017/08/16 14:00:00.007550 1989.ca 7809638 Canada Inc.
9 2017/08/16 14:00:00.010663 1974.ca Maindomain.ca Inc.
10 2017/08/16 14:00:00.014490 parkhillrealestate.ca 8433836 Canada Inc.
11 2017/08/16 14:00:00.018432 portailenvironnement.ca 8433828 Canada Inc.
12 2017/08/16 14:00:00.019189 mustache.ca Domains4U.ca Inc.
13 2017/08/16 14:00:00.019895 1983.ca ZippyDomains.ca Inc.
14 2017/08/16 14:00:00.020576 1973.ca Zidodomain.ca Inc.
15 2017/08/16 14:00:00.020916 1988.ca DOMAINIAC.CA INC
16 2017/08/16 14:00:00.030502 akita.ca 7705395 Canada Inc.
17 2017/08/16 14:00:00.031467 realestateservices.ca DomainPlaza.ca Inc.
18 2017/08/16 14:00:00.031692 facelift.ca 7705310 Canada Inc.
19 2017/08/16 14:00:00.033762 rafi.ca 7695829 Canada Inc.
20 2017/08/16 14:00:00.034283 1970.ca Jaz Domain Names Ltd.
21 2017/08/16 14:00:00.035130 1996.ca 8433771 Canada Inc.
22 2017/08/16 14:00:00.036525 perma.ca 8433801 Canada Inc.
23 2017/08/16 14:00:00.036586 1900.ca 7809620 Canada Inc.
24 2017/08/16 14:00:00.036649 mydeals.ca 7011725 Canada Inc.
25 2017/08/16 14:00:00.037180 1992.ca 8433780 Canada Inc.
26 2017/08/16 14:00:00.038557 digitalminds.ca 7010842 Canada Corporation
27 2017/08/16 14:00:00.042474 1990.ca 8433763 Canada Inc.
28 2017/08/16 14:00:00.044334 kaneffgolf.ca Sibername.com (1686778 Ontario Ltd.)
29 2017/08/16 14:00:00.045211 transport2000.ca 7809654 Canada Inc.
30 2017/08/16 14:00:00.045900 janitorialjobs.ca Creative Pixels Inc.
31 2017/08/16 14:00:00.046050 checkyourcredit.ca 7695748 Canada Inc.
32 2017/08/16 14:00:00.048103 1985.ca LuckyDomains.ca Inc.
33 2017/08/16 14:00:00.048977 thoroldnews.ca Sibername.com (1770821 Ontario Corp. o/a domainecanada.ca)
34 2017/08/16 14:00:00.060146 cordbank.ca HEXONET Services Inc.
35 2017/08/16 14:00:00.073740 trottierenergyfutures.ca Sibername.com (1716640 Ontario Inc.)
36 2017/08/16 14:00:00.097093 walkingtours.ca rapidregister.ca (David A McFadden)
37 2017/08/16 14:00:00.121606 cooperatorstravelinsurance.ca MyReg.ca (Tom Brown)
38 2017/08/16 14:00:00.122172 kaneff.ca Namespro Solutions Inc.
39 2017/08/16 14:00:00.157557 wellwise.ca Webnames.ca Inc.
40 2017/08/16 14:00:00.491911 xsgear.ca DOMAINS2BE.COM INC.
41 2017/08/16 14:00:00.563161 1998.ca DOMAINMARKETPLACE.CA INC
42 2017/08/16 14:00:01.703024 applyatapega.ca Sibername.com (1770819 Ontario Corp. o/a DomainNameRegistration.ca)
43 2017/08/16 14:00:04.923159 selfdrive.ca CA Registry (Ed Hew)
44 2017/08/16 14:00:05.004409 fasdconnections.ca Regnow.ca Inc.
45 2017/08/16 14:00:05.007669 kimathomas.ca Sibername.com (1686780 Ontario Ltd.)
46 2017/08/16 14:00:05.011497 printingsupplies.ca SIBERNAME INTERNET AND SOFTWARE TECHNOLOGIES INC.
47 2017/08/16 14:00:05.051421 cindylou.ca Sibername.com (1770821 Ontario Corp. o/a domainecanada.ca)
48 2017/08/16 14:00:05.076783 dinero.ca Sibername.com (1716640 Ontario Inc.)
49 2017/08/16 14:00:05.215123 rootiemagoos.ca rapidregister.ca (David A McFadden)
50 2017/08/16 14:00:05.226847 canadatour.ca 7705310 Canada Inc.
51 2017/08/16 14:00:05.229389 ranchogrill.ca 7809646 Canada Inc.
52 2017/08/16 14:00:05.255507 montrealmenu.ca 7809638 Canada Inc.
53 2017/08/16 14:00:05.264477 bittorrent.ca 8433836 Canada Inc.
54 2017/08/16 14:00:05.286017 paymentsystemreview.ca 7695829 Canada Inc.
55 2017/08/16 14:00:05.341255 caline.ca Webnames.ca Inc.
56 2017/08/16 14:00:05.359470 wordpresshosting.ca 7809620 Canada Inc.
57 2017/08/16 14:00:05.737282 weddingsinwinnipeg.ca 0756868 B.C. LTD.
58 2017/08/16 14:00:05.803405 jaser.ca Sibername.com (1686778 Ontario Ltd.)
59 2017/08/16 14:00:06.200834 newsreport.ca 0756870 B.C. LTD.
60 2017/08/16 14:00:06.234528 drywaller.ca 7695799 Canada Inc.
61 2017/08/16 14:00:06.259884 visitingcanada.ca Sibername.com (1716639 Ontario Inc.)
62 2017/08/16 14:00:06.321352 rattlesnake.ca 7809689 Canada Inc.
63 2017/08/16 14:00:06.401691 hangloose.ca Sibername.com (1686779 Ontario Ltd.)
64 2017/08/16 14:00:06.519543 teenclub.ca BareMetal.com inc
65 2017/08/16 14:00:06.519589 ilovesoccer.ca Sibername.com (1716641 Ontario Inc.)
66 2017/08/16 14:00:06.550147 offtherack.ca Sibername.com (Bulent Turkoglu o/a domain-name.ca)
67 2017/08/16 14:00:06.675594 finekitchen.ca Koallo Inc
68 2017/08/16 14:00:06.851155 createinspiredsolutions.ca easyDNS Technologies Inc.
69 2017/08/16 14:00:09.976753 advances.ca CA Registry (Ed Hew)
70 2017/08/16 14:00:10.017310 amgold.ca 0756822 B.C. LTD.
71 2017/08/16 14:00:10.347948 wptemplates.ca rapidregister.ca (David A McFadden)
72 2017/08/16 14:00:10.481898 breastenlargements.ca 7705310 Canada Inc.
73 2017/08/16 14:00:10.545819 breastenhancements.ca 7809646 Canada Inc.
74 2017/08/16 14:00:10.546988 mycreditcards.ca 8433836 Canada Inc.
75 2017/08/16 14:00:10.547272 auctioncanada.ca 7809638 Canada Inc.
76 2017/08/16 14:00:10.548431 calgarycosmeticsurgery.ca 8433828 Canada Inc.
77 2017/08/16 14:00:10.564521 attorneyonline.ca 7695829 Canada Inc.
78 2017/08/16 14:00:10.920288 edmontonlandscaper.ca 7705395 Canada Inc.
79 2017/08/16 14:00:10.931508 careonline.ca 8433771 Canada Inc.
80 2017/08/16 14:00:11.029072 jenx.ca dot-ca-registry.ca (Burmac Business Systems Ltd)
81 2017/08/16 14:00:11.029643 naturaldesign.ca 8433780 Canada Inc.
82 2017/08/16 14:00:11.030607 oceanbreeze.ca 8433801 Canada Inc.
83 2017/08/16 14:00:11.112820 blacksmoke.ca 7809620 Canada Inc.
84 2017/08/16 14:00:11.122825 insurancetoronto.ca 7010842 Canada Corporation
85 2017/08/16 14:00:11.240642 greentalk.ca 7011725 Canada Inc.
86 2017/08/16 14:00:11.251750 1963.ca 7695799 Canada Inc.
87 2017/08/16 14:00:11.261752 funz.ca Sibername.com (1716639 Ontario Inc.)
88 2017/08/16 14:00:11.261985 coldlasertherapy.ca 7809654 Canada Inc.
89 2017/08/16 14:00:11.324937 torontosmile.ca 8433763 Canada Inc.
90 2017/08/16 14:00:11.329763 vancouverpainters.ca 7695748 Canada Inc.
91 2017/08/16 14:00:11.390208 onlineattorneys.ca 7809689 Canada Inc.
92 2017/08/16 14:00:11.410493 chinimplants.ca 7809662 Canada Inc.
93 2017/08/16 14:00:11.445278 volweb.ca Creative Pixels Inc.
94 2017/08/16 14:00:12.055461 chantelle.ca Koallo Inc
95 2017/08/16 14:00:15.553633 ventra.ca rapidregister.ca (David A McFadden)
96 2017/08/16 14:00:15.659803 eyelifts.ca 7705310 Canada Inc.
97 2017/08/16 14:00:15.751577 ontariocarinsurance.ca 7695829 Canada Inc.
98 2017/08/16 14:00:16.427796 doctorsvancouver.ca 7705395 Canada Inc.
99 2017/08/16 14:00:16.809219 injurycanada.ca 7010842 Canada Corporation
100 2017/08/16 14:00:17.197909 calgarycasinos.ca 7011725 Canada Inc.
101 2017/08/16 14:00:17.204640 bizarro.ca 7695799 Canada Inc.
102 2017/08/16 14:00:17.222089 edmontoncosmeticsurgery.ca MyID.ca INC.
103 2017/08/16 14:00:17.280841 hairpiece.ca Creative Pixels Inc.
104 2017/08/16 14:00:20.081507 livingchurch.ca CA Registry (Ed Hew)
105 2017/08/16 14:00:20.740600 hairlove.ca rapidregister.ca (David A McFadden)
106 2017/08/16 14:00:21.765250 voltara.ca dot-ca-registry.ca (Burmac Business Systems Ltd)
107 2017/08/16 14:00:21.795919 couloir.ca Canadian Domain Name Services Inc.
108 2017/08/16 14:00:25.129548 wingit.ca CA Registry (Ed Hew)
109 2017/08/16 14:00:25.855644 cannamall.ca rapidregister.ca (David A McFadden)
110 2017/08/16 14:00:26.810893 seaborne.ca dot-ca-registry.ca (Burmac Business Systems Ltd)
111 2017/08/16 14:00:30.164626 springoflife.ca CA Registry (Ed Hew)
112 2017/08/16 14:00:31.178539 waxseals.ca rapidregister.ca (David A McFadden)
113 2017/08/16 14:00:31.178749 myrtle.ca Webnames.ca Inc.
114 2017/08/16 14:00:31.854951 casinolive.ca dot-ca-registry.ca (Burmac Business Systems Ltd)
115 2017/08/16 14:00:35.194532 carcentral.ca CA Registry (Ed Hew)
116 2017/08/16 14:00:36.320443 violets.ca rapidregister.ca (David A McFadden)
117 2017/08/16 14:00:36.903982 wirelesspay.ca dot-ca-registry.ca (Burmac Business Systems Ltd)
118 2017/08/16 14:00:40.258075 royalcastle.ca CA Registry (Ed Hew)
119 2017/08/16 14:00:41.420634 testori.ca rapidregister.ca (David A McFadden)
120 2017/08/16 14:00:41.950003 vandals.ca dot-ca-registry.ca (Burmac Business Systems Ltd)
121 2017/08/16 14:00:46.564865 pureisland.ca rapidregister.ca (David A McFadden)
122 2017/08/16 14:00:46.996714 types.ca dot-ca-registry.ca (Burmac Business Systems Ltd)
123 2017/08/16 14:00:48.381035 cobbswansonmusic.ca Namespro Solutions Inc.
124 2017/08/16 14:00:50.329569 makeamove.ca CA Registry (Ed Hew)
125 2017/08/16 14:00:51.695443 bitwallet.ca rapidregister.ca (David A McFadden)
126 2017/08/16 14:00:52.049650 greentaxis.ca dot-ca-registry.ca (Burmac Business Systems Ltd)
127 2017/08/16 14:00:55.710620 revo.ca CA Registry (Ed Hew)
128 2017/08/16 14:00:58.748819 sareview.ca Namespro Solutions Inc.
129 2017/08/16 14:01:09.162292 cmqa.ca Namespro Solutions Inc.
130 2017/08/16 14:01:14.382827 chambersconstruction.ca Namespro Solutions Inc.
131 2017/08/16 14:01:19.585383 poornomore.ca Namespro Solutions Inc.
132 2017/08/16 14:01:25.742603 panicattacks.ca CA Registry (Ed Hew)
133 2017/08/16 14:01:40.383188 luxlounge.ca Namespro Solutions Inc.
134 2017/08/16 14:01:45.560908 forthefirstime.ca Namespro Solutions Inc.
135 2017/08/16 14:01:50.784396 makam.ca Namespro Solutions Inc.
136 2017/08/16 14:01:55.960048 accessdiving.ca Namespro Solutions Inc.
137 2017/08/16 14:02:16.758345 parkingspace.ca Namespro Solutions Inc.
138 2017/08/16 14:02:21.982541 burrell.ca Namespro Solutions Inc.
139 2017/08/16 14:02:37.559277 sioux.ca Namespro Solutions Inc.
140 2017/08/16 14:02:47.957044 steamcleaning.ca Namespro Solutions Inc.
141 2017/08/16 14:02:53.181668 dressing.ca Namespro Solutions Inc.
142 2017/08/16 14:03:24.383979 uranus.ca Namespro Solutions Inc.
143 2017/08/16 14:03:29.562650 carflags.ca Namespro Solutions Inc.
144 2017/08/16 14:03:34.783235 ciculaire.ca Namespro Solutions Inc.

Tuesday, August 15, 2017

Bloggers.ca Called Out in August 9 .CA Drop & Where to Backorder .CA?

DomainReport.ca

There were a total of 86 .ca domains that were grabbed in last week's August 9th drop.  It wasn't a super high quality drop, but there were some good one and two word domains.  I noticed several one word domains were the plural version, such as proteins.ca, casseroles.ca, etc.

Some of the better names that dropped included:

CharlottetownRealEstate.ca

CAH.ca

Bloggers.ca

GoldShow.ca

SkiClub.ca  (many of these in Canada)


Consume.ca

Settings.ca

Toupee.ca  (soon you can just take a pill)


2018.ca  (a timely domain for 2018 events)


Genco.ca  (interesting for fans of the Godfather movies)

PurePower.ca



Where can I backorder a .ca domain name?

I see that question come up from time to time, so here is what I do.  The two main places I use to backorder a TBR (to be released) .ca domain are Sibername and MyID.  Both are usually fairly successful in catching the domain you want.  If there is more than one person who bids, the name will go to auction the next day, and you'll get a notice and a link to participate.  If they manage to get the domain for you and you're the only bidder, you will get a notice before the end of the day (Wednesday) when the drop occurs.  Usually backordering is closed by around 2pm EST on Wednesday.  Both Sibername and MyID provide the list of domains that are dropping.  With MyID, you can also search by keyword which is helpful, and they also provide lists of 2, 3, 4 and 5 character dropping domains.  You can backorder names in more than one place, and the higher your initial bid is, the higher the registry will prioritize getting your name when they are all released.  The links to the two sites are below, they will take you right to the TBR page but you'll have to create an account to order.  Also important, to own a .ca domain you have to have a Canadian presence (e.g.: be a citizen, have a business in Canada, etc), you can check the CIRA.ca website for the full definition.

Sibername

MyID

Thanks to Sibername for providing the list of results below.  I've bolded some of the better or more interesting names.


Date
Domain Name Registrar
1 2017/08/09 14:00:00.001454 paola.ca Notablenames.ca Inc.
2 2017/08/09 14:00:00.003914 limonow.ca DomainHeadz.ca Inc.
3 2017/08/09 14:00:00.004800 ppgsico.ca DOMAINMARKETPLACE.CA INC
4 2017/08/09 14:00:00.006278 charlottetownrealestate.ca TARTON DOMAIN NAMES LTD
5 2017/08/09 14:00:00.006503 dryv.ca TheDomainNameStore.ca Inc.
6 2017/08/09 14:00:00.008289 cah.ca Submit.ca Inc.
7 2017/08/09 14:00:00.010232 pillsbury.ca 7809620 Canada Inc.
8 2017/08/09 14:00:00.011695 bloggers.ca DomainMall.ca Inc.
9 2017/08/09 14:00:00.016758 weedlaw.ca Sibername.com (1686780 Ontario Ltd.)
10 2017/08/09 14:00:00.017602 urbanroots.ca CanSpace Solutions Inc.
11 2017/08/09 14:00:00.018467 hydraulic.ca 8433801 Canada Inc.
12 2017/08/09 14:00:00.021239 weedlaws.ca Sibername.com (1770819 Ontario Corp. o/a DomainNameRegistration.ca)
13 2017/08/09 14:00:00.028185 capprogram.ca WHOISTOOLBAR.COM CORP.
14 2017/08/09 14:00:00.028386 alliescanada.ca 7705310 Canada Inc.
15 2017/08/09 14:00:00.028684 goldshow.ca Sibername.com (1716641 Ontario Inc.)
16 2017/08/09 14:00:00.028714 skiclub.ca 7695829 Canada Inc.
17 2017/08/09 14:00:00.034093 consume.ca MyNameOnline.ca Inc.
18 2017/08/09 14:00:00.035433 evadaraghinotaire-mediateur.ca Domains4U.ca Inc.
19 2017/08/09 14:00:00.035774 htab.ca 0756868 B.C. LTD.
20 2017/08/09 14:00:00.037054 oscommerce.ca 8433828 Canada Inc.
21 2017/08/09 14:00:00.040129 uneeda.ca Webnames.ca Inc.
22 2017/08/09 14:00:00.088619 bambudda.ca MyReg.ca (Tom Brown)
23 2017/08/09 14:00:00.570596 settings.ca 7705395 Canada Inc.
24 2017/08/09 14:00:04.929220 steelheads.ca CA Registry (Ed Hew)
25 2017/08/09 14:00:05.049050 doglovers.ca Sibername.com (1686780 Ontario Ltd.)
26 2017/08/09 14:00:05.049286 koinz.ca Sibername.com (1770819 Ontario Corp. o/a DomainNameRegistration.ca)
27 2017/08/09 14:00:05.049808 abelearn.ca Sibername.com (1716641 Ontario Inc.)
28 2017/08/09 14:00:05.053747 proteins.ca 0756868 B.C. LTD.
29 2017/08/09 14:00:05.200281 gocanadamoving.ca SIBERNAME INTERNET AND SOFTWARE TECHNOLOGIES INC.
30 2017/08/09 14:00:05.281620 pinotblanc.ca Webnames.ca Inc.
31 2017/08/09 14:00:05.632760 flysask.ca Sibername.com (Bulent Turkoglu o/a domain-name.ca)
32 2017/08/09 14:00:05.845328 kult.ca Sibername.com (1770821 Ontario Corp. o/a domainecanada.ca)
33 2017/08/09 14:00:05.867027 investmentexchange.ca Sibername.com (1770820 Ontario Corp. o/a domainnameca.ca)
34 2017/08/09 14:00:06.037537 ointments.ca 8433836 Canada Inc.
35 2017/08/09 14:00:06.061325 eminent.ca 7809662 Canada Inc.
36 2017/08/09 14:00:06.103309 techtronic.ca 7809638 Canada Inc.
37 2017/08/09 14:00:06.199922 eggbeaters.ca 7809646 Canada Inc.
38 2017/08/09 14:00:06.200352 toupee.ca 7809689 Canada Inc.
39 2017/08/09 14:00:06.203619 belladonna.ca 7809654 Canada Inc.
40 2017/08/09 14:00:06.253875 hypnotherapie.ca 7011725 Canada Inc.
41 2017/08/09 14:00:06.295421 phycol.ca Sibername.com (1716640 Ontario Inc.)
42 2017/08/09 14:00:06.415528 telework.ca rapidregister.ca (David A McFadden)
43 2017/08/09 14:00:06.522346 newworlddisorder.ca 0756822 B.C. LTD.
44 2017/08/09 14:00:07.299621 ontariotuitiongrant.ca easyDNS Technologies Inc.
45 2017/08/09 14:00:09.996173 serendib.ca CA Registry (Ed Hew)
46 2017/08/09 14:00:10.055852 minalliance.ca BareMetal.com inc
47 2017/08/09 14:00:10.074566 hiottawa.ca 0756868 B.C. LTD.
48 2017/08/09 14:00:10.551730 trexcentre.ca MyReg.ca (Tom Brown)
49 2017/08/09 14:00:10.721460 promiscuous.ca Webnames.ca Inc.
50 2017/08/09 14:00:11.527226 offtheleash.ca 0756870 B.C. LTD.
51 2017/08/09 14:00:11.543393 farmcarefoundation.ca 0756822 B.C. LTD.
52 2017/08/09 14:00:11.571187 2018.ca rapidregister.ca (David A McFadden)
53 2017/08/09 14:00:15.078684 chopchop.ca BareMetal.com inc
54 2017/08/09 14:00:15.107384 motivationalspeaker.ca 0756868 B.C. LTD.
55 2017/08/09 14:00:15.570455 uprice.ca MyReg.ca (Tom Brown)
56 2017/08/09 14:00:15.820131 prosurf.ca Webnames.ca Inc.
57 2017/08/09 14:00:15.880185 miniwebsite.ca dot-ca-registry.ca (Burmac Business Systems Ltd)
58 2017/08/09 14:00:16.560664 seomississauga.ca 0756870 B.C. LTD.
59 2017/08/09 14:00:16.729078 islandgold.ca rapidregister.ca (David A McFadden)
60 2017/08/09 14:00:20.102633 foodsecurityresearch.ca BareMetal.com inc
61 2017/08/09 14:00:20.929169 eurobet.ca dot-ca-registry.ca (Burmac Business Systems Ltd)
62 2017/08/09 14:00:20.941410 casseroles.ca Webnames.ca Inc.
63 2017/08/09 14:00:21.855771 skysolar.ca rapidregister.ca (David A McFadden)
64 2017/08/09 14:00:25.973847 canadawire.ca Webnames.ca Inc.
65 2017/08/09 14:00:26.977890 futebol.ca rapidregister.ca (David A McFadden)
66 2017/08/09 14:00:29.178148 mardidd.ca Namespro Solutions Inc.
67 2017/08/09 14:00:31.034837 genco.ca dot-ca-registry.ca (Burmac Business Systems Ltd)
68 2017/08/09 14:00:31.173328 hockeyhats.ca Webnames.ca Inc.
69 2017/08/09 14:00:34.379332 impact99.ca Namespro Solutions Inc.
70 2017/08/09 14:00:36.080290 hammondriver.ca dot-ca-registry.ca (Burmac Business Systems Ltd)
71 2017/08/09 14:00:37.227393 whittakers.ca rapidregister.ca (David A McFadden)
72 2017/08/09 14:00:41.124872 therealdeal.ca dot-ca-registry.ca (Burmac Business Systems Ltd)
73 2017/08/09 14:00:42.457295 vivofit.ca rapidregister.ca (David A McFadden)
74 2017/08/09 14:00:44.780328 ucook.ca Namespro Solutions Inc.
75 2017/08/09 14:00:46.175507 veron.ca dot-ca-registry.ca (Burmac Business Systems Ltd)
76 2017/08/09 14:00:47.567687 bluefly.ca rapidregister.ca (David A McFadden)
77 2017/08/09 14:00:49.976479 manscaping.ca Namespro Solutions Inc.
78 2017/08/09 14:00:51.221077 uxn.ca dot-ca-registry.ca (Burmac Business Systems Ltd)
79 2017/08/09 14:00:52.651520 biolive.ca rapidregister.ca (David A McFadden)
80 2017/08/09 14:00:56.269069 lqe.ca dot-ca-registry.ca (Burmac Business Systems Ltd)
81 2017/08/09 14:00:57.768480 graniteorganic.ca rapidregister.ca (David A McFadden)
82 2017/08/09 14:01:00.365246 licenseplates.ca Namespro Solutions Inc.
83 2017/08/09 14:01:01.319689 dronerepair.ca dot-ca-registry.ca (Burmac Business Systems Ltd)
84 2017/08/09 14:01:02.849081 purepower.ca rapidregister.ca (David A McFadden)
85 2017/08/09 14:01:05.565003 aides.ca Namespro Solutions Inc.
86 2017/08/09 14:01:06.372395 novaseal.ca dot-ca-registry.ca (Burmac Business Systems Ltd)